sensor_id;sensor_type;location;lat;lon;timestamp;P1;durP1;ratioP1;P2;durP2;ratioP2
52798;SDS011;38667;42.872;74.622;2023-11-19T00:01:26;22.50;;;7.80;;
52798;SDS011;38667;42.872;74.622;2023-11-19T00:03:52;14.15;;;6.82;;
52798;SDS011;38667;42.872;74.622;2023-11-19T00:06:19;21.75;;;6.85;;
52798;SDS011;38667;42.872;74.622;2023-11-19T00:08:45;28.77;;;8.35;;
52798;SDS011;38667;42.872;74.622;2023-11-19T00:11:11;18.40;;;7.20;;
52798;SDS011;38667;42.872;74.622;2023-11-19T00:13:38;21.00;;;7.40;;
52798;SDS011;38667;42.872;74.622;2023-11-19T00:16:04;16.77;;;7.50;;
52798;SDS011;38667;42.872;74.622;2023-11-19T00:18:33;22.75;;;8.55;;
52798;SDS011;38667;42.872;74.622;2023-11-19T00:20:59;20.20;;;7.80;;
52798;SDS011;38667;42.872;74.622;2023-11-19T00:23:26;17.38;;;8.25;;
52798;SDS011;38667;42.872;74.622;2023-11-19T00:25:52;23.65;;;8.43;;
52798;SDS011;38667;42.872;74.622;2023-11-19T00:28:18;36.10;;;9.07;;
52798;SDS011;38667;42.872;74.622;2023-11-19T00:30:44;22.00;;;9.25;;
52798;SDS011;38667;42.872;74.622;2023-11-19T00:33:11;23.42;;;10.25;;
52798;SDS011;38667;42.872;74.622;2023-11-19T00:35:39;19.92;;;9.57;;
52798;SDS011;38667;42.872;74.622;2023-11-19T00:38:05;21.92;;;9.10;;
52798;SDS011;38667;42.872;74.622;2023-11-19T00:40:31;24.42;;;9.07;;
52798;SDS011;38667;42.872;74.622;2023-11-19T00:42:57;25.48;;;9.32;;
52798;SDS011;38667;42.872;74.622;2023-11-19T00:45:24;22.80;;;8.15;;
52798;SDS011;38667;42.872;74.622;2023-11-19T00:47:50;18.15;;;7.57;;
52798;SDS011;38667;42.872;74.622;2023-11-19T00:50:16;15.95;;;8.52;;
52798;SDS011;38667;42.872;74.622;2023-11-19T00:52:44;24.40;;;7.93;;
52798;SDS011;38667;42.872;74.622;2023-11-19T00:55:10;23.65;;;7.97;;
52798;SDS011;38667;42.872;74.622;2023-11-19T00:57:37;19.23;;;8.32;;
52798;SDS011;38667;42.872;74.622;2023-11-19T01:00:04;22.25;;;8.90;;
52798;SDS011;38667;42.872;74.622;2023-11-19T01:02:31;19.77;;;8.27;;
52798;SDS011;38667;42.872;74.622;2023-11-19T01:04:57;20.88;;;7.13;;
52798;SDS011;38667;42.872;74.622;2023-11-19T01:07:23;15.52;;;6.03;;
52798;SDS011;38667;42.872;74.622;2023-11-19T01:09:51;16.27;;;5.30;;
52798;SDS011;38667;42.872;74.622;2023-11-19T01:12:17;9.07;;;3.33;;
52798;SDS011;38667;42.872;74.622;2023-11-19T01:14:44;10.70;;;3.65;;
52798;SDS011;38667;42.872;74.622;2023-11-19T01:17:10;13.77;;;3.03;;
52798;SDS011;38667;42.872;74.622;2023-11-19T01:19:36;10.45;;;3.13;;
52798;SDS011;38667;42.872;74.622;2023-11-19T01:22:03;14.90;;;3.30;;
52798;SDS011;38667;42.872;74.622;2023-11-19T01:24:29;12.57;;;3.30;;
52798;SDS011;38667;42.872;74.622;2023-11-19T01:26:57;13.02;;;3.28;;
52798;SDS011;38667;42.872;74.622;2023-11-19T01:29:23;13.63;;;3.70;;
52798;SDS011;38667;42.872;74.622;2023-11-19T01:31:50;14.82;;;4.00;;
52798;SDS011;38667;42.872;74.622;2023-11-19T01:34:16;14.80;;;4.50;;
52798;SDS011;38667;42.872;74.622;2023-11-19T01:36:42;10.57;;;4.35;;
52798;SDS011;38667;42.872;74.622;2023-11-19T01:39:08;17.15;;;5.53;;
52798;SDS011;38667;42.872;74.622;2023-11-19T01:41:35;16.67;;;6.15;;
52798;SDS011;38667;42.872;74.622;2023-11-19T01:44:03;17.80;;;7.47;;
52798;SDS011;38667;42.872;74.622;2023-11-19T01:46:31;16.67;;;7.00;;
52798;SDS011;38667;42.872;74.622;2023-11-19T01:48:58;13.23;;;5.70;;
52798;SDS011;38667;42.872;74.622;2023-11-19T01:51:25;14.65;;;5.60;;
52798;SDS011;38667;42.872;74.622;2023-11-19T01:53:52;15.80;;;5.63;;
52798;SDS011;38667;42.872;74.622;2023-11-19T01:56:19;20.15;;;7.85;;
52798;SDS011;38667;42.872;74.622;2023-11-19T01:58:47;25.92;;;9.02;;
52798;SDS011;38667;42.872;74.622;2023-11-19T02:01:16;15.00;;;7.15;;
52798;SDS011;38667;42.872;74.622;2023-11-19T02:03:42;20.75;;;7.50;;
52798;SDS011;38667;42.872;74.622;2023-11-19T02:06:09;12.02;;;7.15;;
52798;SDS011;38667;42.872;74.622;2023-11-19T02:08:35;15.48;;;4.32;;
52798;SDS011;38667;42.872;74.622;2023-11-19T02:11:02;12.77;;;4.30;;
52798;SDS011;38667;42.872;74.622;2023-11-19T02:13:28;13.57;;;4.45;;
52798;SDS011;38667;42.872;74.622;2023-11-19T02:15:54;13.82;;;3.95;;
52798;SDS011;38667;42.872;74.622;2023-11-19T02:18:23;10.07;;;4.40;;
52798;SDS011;38667;42.872;74.622;2023-11-19T02:20:50;14.40;;;3.97;;
52798;SDS011;38667;42.872;74.622;2023-11-19T02:23:17;11.98;;;3.97;;
52798;SDS011;38667;42.872;74.622;2023-11-19T02:25:47;9.07;;;3.45;;
52798;SDS011;38667;42.872;74.622;2023-11-19T02:28:20;8.75;;;2.90;;
52798;SDS011;38667;42.872;74.622;2023-11-19T02:30:47;8.88;;;3.20;;
52798;SDS011;38667;42.872;74.622;2023-11-19T02:33:13;8.50;;;2.95;;
52798;SDS011;38667;42.872;74.622;2023-11-19T02:35:39;11.85;;;3.25;;
52798;SDS011;38667;42.872;74.622;2023-11-19T02:38:06;8.63;;;3.22;;
52798;SDS011;38667;42.872;74.622;2023-11-19T02:40:32;7.80;;;3.50;;
52798;SDS011;38667;42.872;74.622;2023-11-19T02:42:59;6.32;;;3.20;;
52798;SDS011;38667;42.872;74.622;2023-11-19T02:45:26;8.52;;;3.40;;
52798;SDS011;38667;42.872;74.622;2023-11-19T02:47:53;15.43;;;3.92;;
52798;SDS011;38667;42.872;74.622;2023-11-19T02:50:19;17.75;;;3.85;;
52798;SDS011;38667;42.872;74.622;2023-11-19T02:52:46;13.30;;;4.25;;
52798;SDS011;38667;42.872;74.622;2023-11-19T02:55:12;13.63;;;5.00;;
52798;SDS011;38667;42.872;74.622;2023-11-19T02:57:38;14.10;;;4.45;;
52798;SDS011;38667;42.872;74.622;2023-11-19T03:00:05;10.18;;;5.28;;
52798;SDS011;38667;42.872;74.622;2023-11-19T03:02:34;8.90;;;3.47;;
52798;SDS011;38667;42.872;74.622;2023-11-19T03:05:00;15.65;;;4.18;;
52798;SDS011;38667;42.872;74.622;2023-11-19T03:07:26;14.05;;;4.07;;
52798;SDS011;38667;42.872;74.622;2023-11-19T03:09:53;7.35;;;3.65;;
52798;SDS011;38667;42.872;74.622;2023-11-19T03:12:19;6.72;;;3.60;;
52798;SDS011;38667;42.872;74.622;2023-11-19T03:14:45;9.60;;;3.50;;
52798;SDS011;38667;42.872;74.622;2023-11-19T03:17:11;7.90;;;3.53;;
52798;SDS011;38667;42.872;74.622;2023-11-19T03:19:39;8.20;;;3.95;;
52798;SDS011;38667;42.872;74.622;2023-11-19T03:22:05;10.23;;;5.72;;
52798;SDS011;38667;42.872;74.622;2023-11-19T03:24:32;11.52;;;4.35;;
52798;SDS011;38667;42.872;74.622;2023-11-19T03:26:58;10.43;;;5.05;;
52798;SDS011;38667;42.872;74.622;2023-11-19T03:29:24;13.75;;;4.25;;
52798;SDS011;38667;42.872;74.622;2023-11-19T03:31:51;12.75;;;4.10;;
52798;SDS011;38667;42.872;74.622;2023-11-19T03:34:17;15.85;;;5.05;;
52798;SDS011;38667;42.872;74.622;2023-11-19T03:36:45;9.05;;;3.90;;
52798;SDS011;38667;42.872;74.622;2023-11-19T03:39:11;14.93;;;4.70;;
52798;SDS011;38667;42.872;74.622;2023-11-19T03:41:37;13.48;;;4.63;;
52798;SDS011;38667;42.872;74.622;2023-11-19T03:44:04;10.63;;;4.80;;
52798;SDS011;38667;42.872;74.622;2023-11-19T03:46:30;8.38;;;4.65;;
52798;SDS011;38667;42.872;74.622;2023-11-19T03:48:56;11.93;;;5.22;;
52798;SDS011;38667;42.872;74.622;2023-11-19T03:51:23;10.93;;;6.28;;
52798;SDS011;38667;42.872;74.622;2023-11-19T03:53:50;16.40;;;5.00;;
52798;SDS011;38667;42.872;74.622;2023-11-19T03:56:17;8.90;;;4.28;;
52798;SDS011;38667;42.872;74.622;2023-11-19T03:58:43;8.77;;;4.03;;
52798;SDS011;38667;42.872;74.622;2023-11-19T04:01:11;10.65;;;4.72;;
52798;SDS011;38667;42.872;74.622;2023-11-19T04:03:37;12.52;;;5.82;;
52798;SDS011;38667;42.872;74.622;2023-11-19T04:06:04;13.45;;;7.20;;
52798;SDS011;38667;42.872;74.622;2023-11-19T04:08:30;14.85;;;6.60;;
52798;SDS011;38667;42.872;74.622;2023-11-19T04:10:58;10.38;;;5.63;;
52798;SDS011;38667;42.872;74.622;2023-11-19T04:13:25;11.00;;;5.70;;
52798;SDS011;38667;42.872;74.622;2023-11-19T04:15:52;12.68;;;5.43;;
52798;SDS011;38667;42.872;74.622;2023-11-19T04:18:18;8.80;;;5.57;;
52798;SDS011;38667;42.872;74.622;2023-11-19T04:20:44;6.50;;;4.70;;
52798;SDS011;38667;42.872;74.622;2023-11-19T04:23:11;10.45;;;5.55;;
52798;SDS011;38667;42.872;74.622;2023-11-19T04:25:37;14.68;;;5.30;;
52798;SDS011;38667;42.872;74.622;2023-11-19T04:28:05;17.25;;;8.27;;
52798;SDS011;38667;42.872;74.622;2023-11-19T04:30:31;19.85;;;9.43;;
52798;SDS011;38667;42.872;74.622;2023-11-19T04:32:57;17.00;;;7.47;;
52798;SDS011;38667;42.872;74.622;2023-11-19T04:35:24;13.48;;;6.88;;
52798;SDS011;38667;42.872;74.622;2023-11-19T04:37:50;19.27;;;7.35;;
52798;SDS011;38667;42.872;74.622;2023-11-19T04:40:16;15.25;;;7.93;;
52798;SDS011;38667;42.872;74.622;2023-11-19T04:42:42;20.48;;;10.32;;
52798;SDS011;38667;42.872;74.622;2023-11-19T04:45:11;22.92;;;10.80;;
52798;SDS011;38667;42.872;74.622;2023-11-19T04:47:37;20.00;;;9.75;;
52798;SDS011;38667;42.872;74.622;2023-11-19T04:50:11;13.38;;;8.32;;
52798;SDS011;38667;42.872;74.622;2023-11-19T04:52:37;14.77;;;8.45;;
52798;SDS011;38667;42.872;74.622;2023-11-19T04:55:04;18.30;;;8.15;;
52798;SDS011;38667;42.872;74.622;2023-11-19T04:57:30;18.38;;;8.23;;
52798;SDS011;38667;42.872;74.622;2023-11-19T04:59:57;24.40;;;10.93;;
52798;SDS011;38667;42.872;74.622;2023-11-19T05:02:24;20.23;;;9.90;;
52798;SDS011;38667;42.872;74.622;2023-11-19T05:04:51;22.48;;;10.98;;
52798;SDS011;38667;42.872;74.622;2023-11-19T05:07:17;23.50;;;10.02;;
52798;SDS011;38667;42.872;74.622;2023-11-19T05:09:43;23.02;;;10.60;;
52798;SDS011;38667;42.872;74.622;2023-11-19T05:12:10;26.55;;;12.85;;
52798;SDS011;38667;42.872;74.622;2023-11-19T05:14:36;26.42;;;12.27;;
52798;SDS011;38667;42.872;74.622;2023-11-19T05:17:02;25.45;;;12.43;;
52798;SDS011;38667;42.872;74.622;2023-11-19T05:19:31;27.95;;;12.75;;
52798;SDS011;38667;42.872;74.622;2023-11-19T05:21:57;21.98;;;12.80;;
52798;SDS011;38667;42.872;74.622;2023-11-19T05:24:24;27.42;;;14.60;;
52798;SDS011;38667;42.872;74.622;2023-11-19T05:26:50;23.88;;;13.80;;
52798;SDS011;38667;42.872;74.622;2023-11-19T05:29:17;28.02;;;15.15;;
52798;SDS011;38667;42.872;74.622;2023-11-19T05:31:44;34.28;;;18.33;;
52798;SDS011;38667;42.872;74.622;2023-11-19T05:34:10;26.33;;;14.02;;
52798;SDS011;38667;42.872;74.622;2023-11-19T05:36:38;26.63;;;15.05;;
52798;SDS011;38667;42.872;74.622;2023-11-19T05:39:04;30.02;;;14.80;;
52798;SDS011;38667;42.872;74.622;2023-11-19T05:41:30;30.83;;;19.52;;
52798;SDS011;38667;42.872;74.622;2023-11-19T05:43:57;23.17;;;13.00;;
52798;SDS011;38667;42.872;74.622;2023-11-19T05:46:23;27.08;;;15.38;;
52798;SDS011;38667;42.872;74.622;2023-11-19T05:48:49;81.43;;;41.28;;
52798;SDS011;38667;42.872;74.622;2023-11-19T05:51:15;46.95;;;27.45;;
52798;SDS011;38667;42.872;74.622;2023-11-19T05:53:44;30.92;;;17.88;;
52798;SDS011;38667;42.872;74.622;2023-11-19T05:56:10;35.45;;;21.95;;
52798;SDS011;38667;42.872;74.622;2023-11-19T05:58:37;59.70;;;37.20;;
52798;SDS011;38667;42.872;74.622;2023-11-19T06:01:03;49.70;;;31.23;;
52798;SDS011;38667;42.872;74.622;2023-11-19T06:03:31;26.75;;;16.55;;
52798;SDS011;38667;42.872;74.622;2023-11-19T06:05:57;28.48;;;14.52;;
52798;SDS011;38667;42.872;74.622;2023-11-19T06:08:23;31.15;;;17.05;;
52798;SDS011;38667;42.872;74.622;2023-11-19T06:10:51;36.30;;;21.20;;
52798;SDS011;38667;42.872;74.622;2023-11-19T06:13:17;26.17;;;14.65;;
52798;SDS011;38667;42.872;74.622;2023-11-19T06:15:44;24.80;;;14.20;;
52798;SDS011;38667;42.872;74.622;2023-11-19T06:18:10;30.70;;;15.40;;
52798;SDS011;38667;42.872;74.622;2023-11-19T06:20:36;33.50;;;16.05;;
52798;SDS011;38667;42.872;74.622;2023-11-19T06:23:03;28.50;;;16.83;;
52798;SDS011;38667;42.872;74.622;2023-11-19T06:25:29;27.58;;;16.02;;
52798;SDS011;38667;42.872;74.622;2023-11-19T06:27:57;35.50;;;17.38;;
52798;SDS011;38667;42.872;74.622;2023-11-19T06:30:23;30.73;;;16.67;;
52798;SDS011;38667;42.872;74.622;2023-11-19T06:32:49;33.75;;;16.52;;
52798;SDS011;38667;42.872;74.622;2023-11-19T06:35:16;31.92;;;15.32;;
52798;SDS011;38667;42.872;74.622;2023-11-19T06:37:43;30.77;;;16.00;;
52798;SDS011;38667;42.872;74.622;2023-11-19T06:40:09;32.65;;;17.00;;
52798;SDS011;38667;42.872;74.622;2023-11-19T06:42:36;35.28;;;17.90;;
52798;SDS011;38667;42.872;74.622;2023-11-19T06:45:04;41.45;;;20.50;;
52798;SDS011;38667;42.872;74.622;2023-11-19T06:47:31;40.53;;;18.30;;
52798;SDS011;38667;42.872;74.622;2023-11-19T06:49:58;36.38;;;19.10;;
52798;SDS011;38667;42.872;74.622;2023-11-19T06:52:24;38.72;;;19.42;;
52798;SDS011;38667;42.872;74.622;2023-11-19T06:54:50;36.17;;;20.55;;
52798;SDS011;38667;42.872;74.622;2023-11-19T06:57:16;32.33;;;18.80;;
52798;SDS011;38667;42.872;74.622;2023-11-19T06:59:43;45.92;;;23.00;;
52798;SDS011;38667;42.872;74.622;2023-11-19T07:02:11;41.45;;;21.88;;
52798;SDS011;38667;42.872;74.622;2023-11-19T07:04:37;44.80;;;23.27;;
52798;SDS011;38667;42.872;74.622;2023-11-19T07:07:03;46.25;;;23.00;;
52798;SDS011;38667;42.872;74.622;2023-11-19T07:09:29;51.95;;;26.35;;
52798;SDS011;38667;42.872;74.622;2023-11-19T07:11:56;45.78;;;26.52;;
52798;SDS011;38667;42.872;74.622;2023-11-19T07:14:22;50.35;;;27.25;;
52798;SDS011;38667;42.872;74.622;2023-11-19T07:16:48;49.78;;;28.15;;
52798;SDS011;38667;42.872;74.622;2023-11-19T07:19:16;44.67;;;26.45;;
52798;SDS011;38667;42.872;74.622;2023-11-19T07:21:43;51.42;;;30.38;;
52798;SDS011;38667;42.872;74.622;2023-11-19T07:24:09;51.70;;;30.88;;
52798;SDS011;38667;42.872;74.622;2023-11-19T07:26:36;54.65;;;28.92;;
52798;SDS011;38667;42.872;74.622;2023-11-19T07:29:05;48.42;;;29.20;;
52798;SDS011;38667;42.872;74.622;2023-11-19T07:31:31;50.15;;;29.52;;
52798;SDS011;38667;42.872;74.622;2023-11-19T07:33:58;50.22;;;31.48;;
52798;SDS011;38667;42.872;74.622;2023-11-19T07:36:26;84.55;;;46.50;;
52798;SDS011;38667;42.872;74.622;2023-11-19T07:38:52;78.90;;;47.13;;
52798;SDS011;38667;42.872;74.622;2023-11-19T07:41:18;89.55;;;47.83;;
52798;SDS011;38667;42.872;74.622;2023-11-19T07:43:44;92.40;;;51.45;;
52798;SDS011;38667;42.872;74.622;2023-11-19T07:46:11;79.18;;;44.60;;
52798;SDS011;38667;42.872;74.622;2023-11-19T07:48:38;78.07;;;44.35;;
52798;SDS011;38667;42.872;74.622;2023-11-19T07:51:04;75.72;;;44.80;;
52798;SDS011;38667;42.872;74.622;2023-11-19T07:53:32;74.45;;;45.03;;
52798;SDS011;38667;42.872;74.622;2023-11-19T07:55:59;79.53;;;45.72;;
52798;SDS011;38667;42.872;74.622;2023-11-19T07:58:25;79.22;;;44.88;;
52798;SDS011;38667;42.872;74.622;2023-11-19T08:00:51;84.35;;;46.95;;
52798;SDS011;38667;42.872;74.622;2023-11-19T08:03:18;88.47;;;49.70;;
52798;SDS011;38667;42.872;74.622;2023-11-19T08:05:44;117.57;;;59.95;;
52798;SDS011;38667;42.872;74.622;2023-11-19T08:08:10;169.10;;;79.97;;
52798;SDS011;38667;42.872;74.622;2023-11-19T08:10:38;159.45;;;80.53;;
52798;SDS011;38667;42.872;74.622;2023-11-19T08:13:05;143.10;;;68.32;;
52798;SDS011;38667;42.872;74.622;2023-11-19T08:15:31;94.47;;;48.33;;
52798;SDS011;38667;42.872;74.622;2023-11-19T08:17:58;94.22;;;48.40;;
52798;SDS011;38667;42.872;74.622;2023-11-19T08:20:24;97.85;;;49.30;;
52798;SDS011;38667;42.872;74.622;2023-11-19T08:22:50;86.25;;;44.55;;
52798;SDS011;38667;42.872;74.622;2023-11-19T08:25:17;84.75;;;44.55;;
52798;SDS011;38667;42.872;74.622;2023-11-19T08:27:44;82.03;;;43.60;;
52798;SDS011;38667;42.872;74.622;2023-11-19T08:30:11;69.70;;;40.25;;
52798;SDS011;38667;42.872;74.622;2023-11-19T08:32:38;78.28;;;43.25;;
52798;SDS011;38667;42.872;74.622;2023-11-19T08:35:04;85.95;;;45.90;;
52798;SDS011;38667;42.872;74.622;2023-11-19T08:37:31;90.53;;;46.50;;
52798;SDS011;38667;42.872;74.622;2023-11-19T08:39:57;90.05;;;45.40;;
52798;SDS011;38667;42.872;74.622;2023-11-19T08:42:24;87.88;;;44.67;;
52798;SDS011;38667;42.872;74.622;2023-11-19T08:44:51;92.15;;;46.83;;
52798;SDS011;38667;42.872;74.622;2023-11-19T08:47:18;105.75;;;50.67;;
52798;SDS011;38667;42.872;74.622;2023-11-19T08:49:44;103.95;;;51.95;;
52798;SDS011;38667;42.872;74.622;2023-11-19T08:52:10;124.80;;;60.95;;
52798;SDS011;38667;42.872;74.622;2023-11-19T08:54:37;114.43;;;53.58;;
52798;SDS011;38667;42.872;74.622;2023-11-19T08:57:07;118.30;;;57.40;;
52798;SDS011;38667;42.872;74.622;2023-11-19T08:59:33;116.07;;;57.22;;
52798;SDS011;38667;42.872;74.622;2023-11-19T09:02:01;121.03;;;58.10;;
52798;SDS011;38667;42.872;74.622;2023-11-19T09:04:27;126.82;;;62.13;;
52798;SDS011;38667;42.872;74.622;2023-11-19T09:06:54;130.13;;;63.78;;
52798;SDS011;38667;42.872;74.622;2023-11-19T09:09:20;116.18;;;57.08;;
52798;SDS011;38667;42.872;74.622;2023-11-19T09:11:46;119.40;;;57.80;;
52798;SDS011;38667;42.872;74.622;2023-11-19T09:14:12;107.53;;;54.38;;
52798;SDS011;38667;42.872;74.622;2023-11-19T09:16:39;105.40;;;56.30;;
52798;SDS011;38667;42.872;74.622;2023-11-19T09:19:07;104.20;;;56.45;;
52798;SDS011;38667;42.872;74.622;2023-11-19T09:21:33;114.40;;;54.90;;
52798;SDS011;38667;42.872;74.622;2023-11-19T09:23:59;122.03;;;56.90;;
52798;SDS011;38667;42.872;74.622;2023-11-19T09:26:25;99.90;;;49.15;;
52798;SDS011;38667;42.872;74.622;2023-11-19T09:28:52;93.03;;;44.92;;
52798;SDS011;38667;42.872;74.622;2023-11-19T09:31:18;82.57;;;41.30;;
52798;SDS011;38667;42.872;74.622;2023-11-19T09:33:44;79.13;;;40.53;;
52798;SDS011;38667;42.872;74.622;2023-11-19T09:36:13;80.20;;;40.95;;
52798;SDS011;38667;42.872;74.622;2023-11-19T09:38:39;88.63;;;42.30;;
52798;SDS011;38667;42.872;74.622;2023-11-19T09:41:06;87.72;;;43.58;;
52798;SDS011;38667;42.872;74.622;2023-11-19T09:43:32;104.53;;;46.00;;
52798;SDS011;38667;42.872;74.622;2023-11-19T09:45:59;93.95;;;52.05;;
52798;SDS011;38667;42.872;74.622;2023-11-19T09:48:29;97.03;;;45.00;;
52798;SDS011;38667;42.872;74.622;2023-11-19T09:50:58;90.65;;;43.05;;
52798;SDS011;38667;42.872;74.622;2023-11-19T09:53:27;90.88;;;42.88;;
52798;SDS011;38667;42.872;74.622;2023-11-19T09:55:53;95.97;;;50.25;;
52798;SDS011;38667;42.872;74.622;2023-11-19T09:58:21;92.75;;;47.25;;
52798;SDS011;38667;42.872;74.622;2023-11-19T10:00:49;102.13;;;47.95;;
52798;SDS011;38667;42.872;74.622;2023-11-19T10:03:16;99.68;;;50.40;;
52798;SDS011;38667;42.872;74.622;2023-11-19T10:05:42;93.85;;;42.00;;
52798;SDS011;38667;42.872;74.622;2023-11-19T10:08:08;84.97;;;40.92;;
52798;SDS011;38667;42.872;74.622;2023-11-19T10:10:36;103.00;;;44.75;;
52798;SDS011;38667;42.872;74.622;2023-11-19T10:13:03;98.65;;;47.88;;
52798;SDS011;38667;42.872;74.622;2023-11-19T10:15:30;98.25;;;44.88;;
52798;SDS011;38667;42.872;74.622;2023-11-19T10:18:00;87.22;;;43.90;;
52798;SDS011;38667;42.872;74.622;2023-11-19T10:20:27;82.90;;;44.97;;
52798;SDS011;38667;42.872;74.622;2023-11-19T10:22:53;84.03;;;39.78;;
52798;SDS011;38667;42.872;74.622;2023-11-19T10:25:21;94.80;;;40.85;;
52798;SDS011;38667;42.872;74.622;2023-11-19T10:27:50;76.85;;;32.67;;
52798;SDS011;38667;42.872;74.622;2023-11-19T10:30:20;78.10;;;33.75;;
52798;SDS011;38667;42.872;74.622;2023-11-19T10:32:54;80.70;;;36.13;;
52798;SDS011;38667;42.872;74.622;2023-11-19T10:35:31;82.28;;;37.08;;
52798;SDS011;38667;42.872;74.622;2023-11-19T10:37:59;71.07;;;35.33;;
52798;SDS011;38667;42.872;74.622;2023-11-19T10:40:33;77.20;;;36.90;;
52798;SDS011;38667;42.872;74.622;2023-11-19T10:43:05;74.68;;;37.55;;
52798;SDS011;38667;42.872;74.622;2023-11-19T10:45:31;98.10;;;43.33;;
52798;SDS011;38667;42.872;74.622;2023-11-19T10:47:57;83.82;;;38.88;;
52798;SDS011;38667;42.872;74.622;2023-11-19T10:50:24;88.63;;;41.13;;
52798;SDS011;38667;42.872;74.622;2023-11-19T10:52:51;91.93;;;39.85;;
52798;SDS011;38667;42.872;74.622;2023-11-19T10:55:21;95.85;;;40.42;;
52798;SDS011;38667;42.872;74.622;2023-11-19T10:57:52;93.50;;;41.67;;
52798;SDS011;38667;42.872;74.622;2023-11-19T11:00:23;94.82;;;41.63;;
52798;SDS011;38667;42.872;74.622;2023-11-19T11:02:54;97.05;;;42.70;;
52798;SDS011;38667;42.872;74.622;2023-11-19T11:05:25;101.43;;;43.15;;
52798;SDS011;38667;42.872;74.622;2023-11-19T11:07:52;103.18;;;46.22;;
52798;SDS011;38667;42.872;74.622;2023-11-19T11:10:20;93.43;;;44.47;;
52798;SDS011;38667;42.872;74.622;2023-11-19T11:12:50;112.43;;;53.97;;
52798;SDS011;38667;42.872;74.622;2023-11-19T11:15:17;102.93;;;49.55;;
52798;SDS011;38667;42.872;74.622;2023-11-19T11:17:46;125.13;;;58.85;;
52798;SDS011;38667;42.872;74.622;2023-11-19T11:20:13;110.57;;;53.45;;
52798;SDS011;38667;42.872;74.622;2023-11-19T11:22:41;119.07;;;52.42;;
52798;SDS011;38667;42.872;74.622;2023-11-19T11:25:19;111.18;;;50.15;;
52798;SDS011;38667;42.872;74.622;2023-11-19T11:28:05;108.75;;;47.28;;
52798;SDS011;38667;42.872;74.622;2023-11-19T11:30:46;95.90;;;39.67;;
52798;SDS011;38667;42.872;74.622;2023-11-19T11:33:30;93.82;;;40.20;;
52798;SDS011;38667;42.872;74.622;2023-11-19T11:36:19;97.25;;;42.35;;
52798;SDS011;38667;42.872;74.622;2023-11-19T11:38:47;86.07;;;41.40;;
52798;SDS011;38667;42.872;74.622;2023-11-19T11:41:21;82.22;;;41.30;;
52798;SDS011;38667;42.872;74.622;2023-11-19T11:43:48;82.68;;;43.95;;
52798;SDS011;38667;42.872;74.622;2023-11-19T11:49:29;99.88;;;47.30;;
52798;SDS011;38667;42.872;74.622;2023-11-19T11:51:57;102.50;;;50.25;;
52798;SDS011;38667;42.872;74.622;2023-11-19T11:54:28;113.57;;;52.45;;
52798;SDS011;38667;42.872;74.622;2023-11-19T11:57:07;111.65;;;52.65;;
52798;SDS011;38667;42.872;74.622;2023-11-19T11:59:37;125.63;;;55.30;;
52798;SDS011;38667;42.872;74.622;2023-11-19T12:02:13;132.35;;;59.72;;
52798;SDS011;38667;42.872;74.622;2023-11-19T12:04:42;128.85;;;60.53;;
52798;SDS011;38667;42.872;74.622;2023-11-19T12:07:12;138.20;;;63.72;;
52798;SDS011;38667;42.872;74.622;2023-11-19T12:09:42;135.90;;;63.30;;
52798;SDS011;38667;42.872;74.622;2023-11-19T12:12:18;137.82;;;61.60;;
52798;SDS011;38667;42.872;74.622;2023-11-19T12:15:00;134.68;;;57.97;;
52798;SDS011;38667;42.872;74.622;2023-11-19T12:17:37;129.60;;;59.97;;
52798;SDS011;38667;42.872;74.622;2023-11-19T12:20:09;133.60;;;58.40;;
52798;SDS011;38667;42.872;74.622;2023-11-19T12:22:36;140.27;;;60.58;;
52798;SDS011;38667;42.872;74.622;2023-11-19T12:25:03;124.22;;;56.67;;
52798;SDS011;38667;42.872;74.622;2023-11-19T12:27:31;121.38;;;54.60;;
52798;SDS011;38667;42.872;74.622;2023-11-19T12:29:57;118.85;;;52.75;;
52798;SDS011;38667;42.872;74.622;2023-11-19T12:32:24;116.18;;;51.17;;
52798;SDS011;38667;42.872;74.622;2023-11-19T12:34:50;108.03;;;48.17;;
52798;SDS011;38667;42.872;74.622;2023-11-19T12:37:18;105.47;;;47.58;;
52798;SDS011;38667;42.872;74.622;2023-11-19T12:39:45;111.53;;;47.90;;
52798;SDS011;38667;42.872;74.622;2023-11-19T12:42:11;103.97;;;47.03;;
52798;SDS011;38667;42.872;74.622;2023-11-19T12:44:37;92.70;;;45.17;;
52798;SDS011;38667;42.872;74.622;2023-11-19T12:47:04;80.18;;;41.92;;
52798;SDS011;38667;42.872;74.622;2023-11-19T12:49:31;90.05;;;42.25;;
52798;SDS011;38667;42.872;74.622;2023-11-19T12:51:58;81.57;;;40.67;;
52798;SDS011;38667;42.872;74.622;2023-11-19T12:57:10;77.22;;;37.00;;
52798;SDS011;38667;42.872;74.622;2023-11-19T12:59:36;77.53;;;38.63;;
52798;SDS011;38667;42.872;74.622;2023-11-19T13:02:03;81.07;;;37.55;;
52798;SDS011;38667;42.872;74.622;2023-11-19T13:04:30;83.18;;;38.85;;
52798;SDS011;38667;42.872;74.622;2023-11-19T13:06:56;79.43;;;37.17;;
52798;SDS011;38667;42.872;74.622;2023-11-19T13:09:23;88.97;;;38.53;;
52798;SDS011;38667;42.872;74.622;2023-11-19T13:11:52;79.28;;;35.40;;
52798;SDS011;38667;42.872;74.622;2023-11-19T13:14:18;82.40;;;36.80;;
52798;SDS011;38667;42.872;74.622;2023-11-19T13:16:45;85.07;;;37.10;;
52798;SDS011;38667;42.872;74.622;2023-11-19T13:19:12;84.70;;;38.67;;
52798;SDS011;38667;42.872;74.622;2023-11-19T13:21:38;97.30;;;42.03;;
52798;SDS011;38667;42.872;74.622;2023-11-19T13:24:05;91.82;;;41.40;;
52798;SDS011;38667;42.872;74.622;2023-11-19T13:26:32;95.13;;;41.55;;
52798;SDS011;38667;42.872;74.622;2023-11-19T13:29:00;101.32;;;44.17;;
52798;SDS011;38667;42.872;74.622;2023-11-19T13:31:26;110.72;;;46.85;;
52798;SDS011;38667;42.872;74.622;2023-11-19T13:33:52;106.88;;;46.55;;
52798;SDS011;38667;42.872;74.622;2023-11-19T13:36:19;112.60;;;48.85;;
52798;SDS011;38667;42.872;74.622;2023-11-19T13:38:45;126.45;;;50.97;;
52798;SDS011;38667;42.872;74.622;2023-11-19T13:41:12;123.93;;;49.92;;
52798;SDS011;38667;42.872;74.622;2023-11-19T13:43:38;126.07;;;52.65;;
52798;SDS011;38667;42.872;74.622;2023-11-19T13:46:07;131.75;;;55.47;;
52798;SDS011;38667;42.872;74.622;2023-11-19T13:48:33;140.27;;;53.60;;
52798;SDS011;38667;42.872;74.622;2023-11-19T13:50:59;126.20;;;53.17;;
52798;SDS011;38667;42.872;74.622;2023-11-19T13:53:26;133.15;;;55.83;;
52798;SDS011;38667;42.872;74.622;2023-11-19T13:55:52;142.75;;;55.28;;
52798;SDS011;38667;42.872;74.622;2023-11-19T13:58:19;138.27;;;59.70;;
52798;SDS011;38667;42.872;74.622;2023-11-19T14:00:46;132.35;;;56.60;;
52798;SDS011;38667;42.872;74.622;2023-11-19T14:03:14;160.57;;;64.95;;
52798;SDS011;38667;42.872;74.622;2023-11-19T14:05:41;183.95;;;77.50;;
52798;SDS011;38667;42.872;74.622;2023-11-19T14:08:07;140.40;;;60.15;;
52798;SDS011;38667;42.872;74.622;2023-11-19T14:10:34;146.93;;;59.78;;
52798;SDS011;38667;42.872;74.622;2023-11-19T14:13:00;145.15;;;59.70;;
52798;SDS011;38667;42.872;74.622;2023-11-19T14:15:27;143.55;;;57.92;;
52798;SDS011;38667;42.872;74.622;2023-11-19T14:17:53;157.02;;;63.08;;